Time;durP1;ratioP1;P1;durP2;ratioP2;P2;SDS_P1;SDS_P2;PMS_P1;PMS_P2;Temp;Humidity;BMP_temperature;BMP_pressure;BME280_temperature;BME280_humidity;BME280_pressure;Samples;Min_cycle;Max_cycle;Signal;HPM_P1;HPM_P2
2024/04/19 00:01:40;;;;;;;7.07;4.77;;;9.10;25.50;;;;;;5455380;26;20707;-68
2024/04/19 00:04:10;;;;;;;4.00;3.67;;;9.20;21.90;;;;;;5451150;26;20750;-69
2024/04/19 00:06:38;;;;;;;8.70;4.07;;;9.20;30.00;;;;;;5447135;26;20310;-69
2024/04/19 00:09:09;;;;;;;8.93;3.87;;;9.20;34.00;;;;;;5454957;26;20981;-69
2024/04/19 00:11:36;;;;;;;6.47;3.87;;;9.10;46.50;;;;;;5448164;26;20746;-69
2024/04/19 00:14:06;;;;;;;7.43;4.10;;;9.10;53.70;;;;;;5450694;25;20263;-69
2024/04/19 00:16:36;;;;;;;4.87;4.00;;;9.10;61.80;;;;;;5450240;26;20275;-69
2024/04/19 00:19:07;;;;;;;9.20;4.50;;;9.10;78.50;;;;;;5454902;26;20632;-69
2024/04/19 00:21:34;;;;;;;8.83;4.40;;;9.10;82.60;;;;;;5450571;26;20726;-69
2024/04/19 00:24:05;;;;;;;4.93;4.30;;;9.10;95.20;;;;;;5455270;25;20820;-69
2024/04/19 00:26:32;;;;;;;6.40;4.37;;;9.00;98.70;;;;;;5456036;26;20252;-68
2024/04/19 00:29:02;;;;;;;6.47;4.40;;;8.90;99.90;;;;;;5440626;26;20245;-68
2024/04/19 00:31:30;;;;;;;9.07;5.03;;;8.90;99.90;;;;;;5442964;26;20286;-68
2024/04/19 00:34:03;;;;;;;4.77;4.20;;;8.80;99.90;;;;;;5456666;26;20255;-68
2024/04/19 00:36:31;;;;;;;8.00;4.77;;;8.70;99.90;;;;;;5444971;26;20265;-68
2024/04/19 00:39:01;;;;;;;10.17;4.87;;;8.70;99.90;;;;;;5453565;25;20261;-68
2024/04/19 00:41:29;;;;;;;11.07;5.43;;;8.70;99.90;;;;;;5450818;26;20265;-67
2024/04/19 00:43:59;;;;;;;12.43;5.30;;;8.60;99.90;;;;;;5448323;26;20846;-67
2024/04/19 00:46:27;;;;;;;6.60;4.70;;;8.70;99.90;;;;;;5449098;26;20276;-68
2024/04/19 00:48:57;;;;;;;9.57;4.70;;;8.60;99.90;;;;;;5456595;26;20252;-67
2024/04/19 00:51:27;;;;;;;12.07;5.20;;;8.60;99.90;;;;;;5446995;26;20759;-68
2024/04/19 00:53:57;;;;;;;5.90;4.73;;;8.60;99.90;;;;;;5451195;26;20356;-67
2024/04/19 00:56:25;;;;;;;6.90;4.90;;;8.50;99.90;;;;;;5440420;26;20254;-67
2024/04/19 00:58:56;;;;;;;7.10;4.47;;;8.50;99.90;;;;;;5456836;26;20231;-67
2024/04/19 01:01:29;;;;;;;5.43;4.27;;;8.50;99.90;;;;;;5452450;26;20292;-67
2024/04/19 01:04:01;;;;;;;7.07;3.73;;;8.40;99.90;;;;;;5453021;26;21088;-67
2024/04/19 01:06:34;;;;;;;5.40;3.80;;;8.40;99.90;;;;;;5447504;26;20294;-67
2024/04/19 01:09:04;;;;;;;7.00;3.60;;;8.40;99.90;;;;;;5443155;26;20283;-67
2024/04/19 01:11:34;;;;;;;5.73;3.33;;;8.30;99.90;;;;;;5454198;26;20294;-67
2024/04/19 01:14:02;;;;;;;10.13;3.83;;;8.30;99.90;;;;;;5452833;25;20290;-67
2024/04/19 01:16:33;;;;;;;6.47;3.57;;;8.20;99.90;;;;;;5453843;26;20233;-67
2024/04/19 01:19:00;;;;;;;4.83;3.50;;;8.30;99.90;;;;;;5449394;26;20244;-67
2024/04/19 01:21:33;;;;;;;8.60;3.73;;;8.20;99.90;;;;;;5449139;26;20289;-67
2024/04/19 01:24:08;;;;;;;8.47;3.30;;;8.20;99.90;;;;;;5444551;26;20261;-67
2024/04/19 01:26:41;;;;;;;10.37;3.77;;;8.20;99.90;;;;;;5446414;26;20256;-67
2024/04/19 01:29:08;;;;;;;6.40;3.90;;;8.20;99.90;;;;;;5445222;25;20303;-67
2024/04/19 01:31:41;;;;;;;6.63;3.50;;;8.20;99.90;;;;;;5451836;26;20894;-67
2024/04/19 01:34:08;;;;;;;3.90;3.57;;;8.10;99.90;;;;;;5448310;26;20634;-67
2024/04/19 01:36:38;;;;;;;7.13;3.90;;;8.10;99.90;;;;;;5451833;26;20265;-67
2024/04/19 01:39:09;;;;;;;4.83;3.73;;;8.10;99.90;;;;;;5451221;26;20279;-67
2024/04/19 01:41:41;;;;;;;5.90;3.50;;;8.10;99.90;;;;;;5451686;26;20253;-67
2024/04/19 01:44:12;;;;;;;7.70;3.60;;;8.10;99.90;;;;;;5449730;25;20311;-66
2024/04/19 01:46:39;;;;;;;5.73;3.60;;;8.10;99.90;;;;;;5451595;26;20266;-67
2024/04/19 01:49:09;;;;;;;4.10;3.70;;;8.10;99.90;;;;;;5456723;26;20271;-67
2024/04/19 01:51:37;;;;;;;11.03;3.60;;;8.10;99.90;;;;;;5451497;26;20697;-66
2024/04/19 01:54:07;;;;;;;8.87;3.90;;;8.10;99.90;;;;;;5448634;25;20307;-67
2024/04/19 01:56:35;;;;;;;8.63;3.60;;;8.00;99.90;;;;;;5457626;25;20261;-67
2024/04/19 01:59:07;;;;;;;6.03;3.63;;;8.10;99.90;;;;;;5455412;25;20305;-67
2024/04/19 02:01:37;;;;;;;7.40;3.60;;;8.10;99.90;;;;;;5452143;26;20271;-66
2024/04/19 02:04:05;;;;;;;4.23;3.70;;;8.00;99.90;;;;;;5449055;26;20320;-67
2024/04/19 02:06:35;;;;;;;7.07;3.90;;;8.00;99.90;;;;;;5447953;26;20307;-66
2024/04/19 02:09:05;;;;;;;9.63;3.70;;;8.00;99.90;;;;;;5446171;26;20371;-66
2024/04/19 02:11:35;;;;;;;9.67;4.00;;;8.00;99.90;;;;;;5453685;26;20299;-66
2024/04/19 02:14:05;;;;;;;12.40;4.67;;;8.00;99.90;;;;;;5452835;26;20576;-67
2024/04/19 02:16:35;;;;;;;6.13;3.90;;;8.00;99.90;;;;;;5453127;26;20708;-67
2024/04/19 02:19:03;;;;;;;3.67;3.20;;;7.90;99.90;;;;;;5447268;26;20261;-67
2024/04/19 02:21:33;;;;;;;6.57;3.43;;;8.00;99.90;;;;;;5447318;26;20294;-67
2024/04/19 02:24:03;;;;;;;6.17;3.23;;;8.00;99.90;;;;;;5449898;26;20264;-67
2024/04/19 02:26:34;;;;;;;3.63;3.30;;;8.00;99.90;;;;;;5456330;26;20300;-67
2024/04/19 02:31:54;;;;;;;4.30;3.00;;;7.90;99.90;;;;;;5452289;26;20271;-65
2024/04/19 02:34:25;;;;;;;7.27;2.97;;;7.90;99.90;;;;;;5449902;26;20295;-66
2024/04/19 02:36:55;;;;;;;3.70;3.00;;;7.90;99.90;;;;;;5451878;26;20651;-67
2024/04/19 02:39:25;;;;;;;2.87;2.60;;;7.90;99.90;;;;;;5443152;26;20296;-66
2024/04/19 02:41:55;;;;;;;5.13;3.07;;;7.90;99.90;;;;;;5455232;26;20349;-67
2024/04/19 02:44:25;;;;;;;7.20;2.90;;;7.90;99.90;;;;;;5449348;26;20674;-67
2024/04/19 02:46:58;;;;;;;3.90;2.90;;;7.80;99.90;;;;;;5452432;26;20241;-66
2024/04/19 02:49:26;;;;;;;3.53;3.23;;;7.80;99.90;;;;;;5449635;26;20228;-66
2024/04/19 02:51:56;;;;;;;5.00;3.60;;;7.80;99.90;;;;;;5447737;26;20324;-66
2024/04/19 02:54:26;;;;;;;4.07;3.33;;;7.80;99.90;;;;;;5450299;25;20823;-66
2024/04/19 02:56:56;;;;;;;7.23;3.00;;;7.80;99.90;;;;;;5441321;26;20316;-67
2024/04/19 02:59:24;;;;;;;7.27;3.40;;;7.80;99.90;;;;;;5447709;26;20779;-66
2024/04/19 03:01:54;;;;;;;5.57;3.30;;;7.70;99.90;;;;;;5457587;26;20271;-66
2024/04/19 03:04:27;;;;;;;5.87;3.37;;;7.70;99.90;;;;;;5447815;26;20233;-66
2024/04/19 03:06:59;;;;;;;6.20;3.60;;;7.70;99.90;;;;;;5448360;25;20253;-66
2024/04/19 03:09:31;;;;;;;5.53;3.40;;;7.70;99.90;;;;;;5446097;26;20669;-67
2024/04/19 03:12:01;;;;;;;6.27;4.00;;;7.70;99.90;;;;;;5447715;26;20257;-66
2024/04/19 03:14:31;;;;;;;4.13;3.53;;;7.70;99.90;;;;;;5453676;26;20253;-66
2024/04/19 03:17:01;;;;;;;5.30;3.63;;;7.70;99.90;;;;;;5454480;26;20278;-66
2024/04/19 03:19:34;;;;;;;6.50;3.77;;;7.60;99.90;;;;;;5452099;26;20592;-66
2024/04/19 03:22:04;;;;;;;3.70;3.40;;;7.70;99.90;;;;;;5450577;26;20312;-66
2024/04/19 03:24:35;;;;;;;5.77;3.57;;;7.70;99.90;;;;;;5455644;26;20796;-66
2024/04/19 03:27:05;;;;;;;5.77;3.63;;;7.70;99.90;;;;;;5445629;26;20272;-66
2024/04/19 03:29:36;;;;;;;5.03;3.70;;;7.70;99.90;;;;;;5445190;26;20245;-66
2024/04/19 03:32:06;;;;;;;7.43;4.30;;;7.70;99.90;;;;;;5448188;26;20264;-67
2024/04/19 03:34:39;;;;;;;5.67;4.30;;;7.70;99.90;;;;;;5459262;26;20233;-67
2024/04/19 03:37:09;;;;;;;6.93;4.00;;;7.70;99.90;;;;;;5459802;26;20237;-66
2024/04/19 03:39:39;;;;;;;4.47;4.00;;;7.70;99.90;;;;;;5449909;25;20264;-66
2024/04/19 03:42:14;;;;;;;5.70;4.20;;;7.70;99.90;;;;;;5452273;26;21048;-67
2024/04/19 03:47:30;;;;;;;10.07;4.40;;;7.80;99.90;;;;;;5458695;25;20260;-66
2024/04/19 03:50:03;;;;;;;4.97;4.13;;;7.80;99.90;;;;;;5452524;26;20233;-66
2024/04/19 03:52:34;;;;;;;10.63;4.40;;;7.80;99.90;;;;;;5448277;26;20233;-67
2024/04/19 03:55:04;;;;;;;4.47;4.10;;;7.80;99.90;;;;;;5457223;26;20297;-67
2024/04/19 03:57:34;;;;;;;5.07;4.60;;;7.80;99.90;;;;;;5458385;25;20759;-67
2024/04/19 04:00:04;;;;;;;8.07;4.87;;;7.90;99.90;;;;;;5447676;25;20840;-67
2024/04/19 04:02:35;;;;;;;6.30;4.63;;;7.90;99.90;;;;;;5442087;26;20249;-67
2024/04/19 04:05:08;;;;;;;6.73;4.73;;;7.90;99.90;;;;;;5449894;26;20782;-67
2024/04/19 04:07:38;;;;;;;4.80;4.40;;;7.90;99.90;;;;;;5458705;26;20244;-66
2024/04/19 04:10:08;;;;;;;4.97;4.43;;;8.00;99.90;;;;;;5455718;26;20908;-66
2024/04/19 04:12:38;;;;;;;5.47;4.57;;;8.00;99.90;;;;;;5459999;26;20273;-66
2024/04/19 04:15:09;;;;;;;7.37;4.37;;;8.00;99.90;;;;;;5451792;26;20341;-66
2024/04/19 04:17:39;;;;;;;5.80;4.67;;;8.00;99.90;;;;;;5457395;26;20317;-66
2024/04/19 04:20:12;;;;;;;5.57;4.50;;;8.00;99.90;;;;;;5451338;26;20699;-65
2024/04/19 04:22:42;;;;;;;6.40;4.97;;;8.10;99.90;;;;;;5448533;26;20237;-66
2024/04/19 04:25:12;;;;;;;7.80;5.00;;;8.00;99.90;;;;;;5463391;26;20240;-65
2024/04/19 04:27:42;;;;;;;7.30;5.20;;;8.10;99.90;;;;;;5454581;26;20263;-66
2024/04/19 04:30:13;;;;;;;6.17;5.43;;;8.10;99.90;;;;;;5450020;25;20261;-65
2024/04/19 04:32:44;;;;;;;5.60;5.20;;;8.10;99.90;;;;;;5445364;26;20735;-66
2024/04/19 04:35:17;;;;;;;5.60;5.10;;;8.10;99.90;;;;;;5455223;26;20261;-65
2024/04/19 04:37:47;;;;;;;7.43;5.67;;;8.20;99.90;;;;;;5448634;25;20327;-65
2024/04/19 04:40:18;;;;;;;6.17;5.43;;;8.20;99.90;;;;;;5442294;26;20240;-66
2024/04/19 04:42:48;;;;;;;6.77;5.50;;;8.20;99.90;;;;;;5451016;26;20301;-65
2024/04/19 04:45:18;;;;;;;5.73;5.37;;;8.20;99.90;;;;;;5447494;26;20312;-65
2024/04/19 04:47:48;;;;;;;7.07;5.90;;;8.20;99.90;;;;;;5457143;25;20247;-65
2024/04/19 04:50:23;;;;;;;7.40;5.93;;;8.20;99.90;;;;;;5453704;26;20259;-64
2024/04/19 04:52:56;;;;;;;7.27;6.57;;;8.20;99.90;;;;;;5457147;25;20279;-64
2024/04/19 04:55:26;;;;;;;7.13;6.43;;;8.30;99.90;;;;;;5451712;26;20295;-65
2024/04/19 04:57:56;;;;;;;7.33;6.73;;;8.30;99.90;;;;;;5456422;26;20735;-65
2024/04/19 05:00:28;;;;;;;9.47;7.30;;;8.30;99.90;;;;;;5453828;25;20345;-65
2024/04/19 05:02:59;;;;;;;12.60;8.13;;;8.40;99.90;;;;;;5456008;26;20252;-65
2024/04/19 05:05:32;;;;;;;10.87;8.83;;;8.40;99.90;;;;;;5453685;26;20283;-65
2024/04/19 05:08:02;;;;;;;10.00;8.50;;;8.40;99.90;;;;;;5460201;25;20239;-65
2024/04/19 05:10:32;;;;;;;10.33;9.20;;;8.50;99.90;;;;;;5458991;26;20564;-65
2024/04/19 05:13:03;;;;;;;13.03;10.20;;;8.50;99.90;;;;;;5454016;25;20290;-65
2024/04/19 05:15:33;;;;;;;15.60;10.13;;;8.50;99.90;;;;;;5440391;26;20289;-65
2024/04/19 05:18:03;;;;;;;15.20;10.20;;;8.50;99.90;;;;;;5451313;26;20253;-65
2024/04/19 05:20:36;;;;;;;16.57;11.23;;;8.50;99.90;;;;;;5454008;26;20251;-65
2024/04/19 05:23:06;;;;;;;19.43;11.87;;;8.50;99.90;;;;;;5452595;26;20299;-65
2024/04/19 05:25:38;;;;;;;15.47;11.53;;;8.50;99.90;;;;;;5451444;26;20263;-65
2024/04/19 05:28:08;;;;;;;16.53;12.60;;;8.60;99.90;;;;;;5454861;26;20257;-65
2024/04/19 05:30:38;;;;;;;16.43;12.20;;;8.60;99.90;;;;;;5446706;25;20256;-65
2024/04/19 05:33:09;;;;;;;13.37;11.77;;;8.70;99.90;;;;;;5442961;26;20301;-65
2024/04/19 05:35:41;;;;;;;18.33;12.00;;;8.60;99.90;;;;;;5455533;25;20584;-66
2024/04/19 05:38:12;;;;;;;21.10;12.37;;;8.70;99.90;;;;;;5444751;26;20253;-66
2024/04/19 05:40:43;;;;;;;18.27;12.60;;;8.70;99.90;;;;;;5445563;26;20242;-66
2024/04/19 05:43:13;;;;;;;21.77;12.70;;;8.70;99.90;;;;;;5444267;26;20267;-65
2024/04/19 05:45:43;;;;;;;18.03;12.80;;;8.70;99.90;;;;;;5451883;26;20294;-66
2024/04/19 05:48:15;;;;;;;21.70;13.50;;;8.80;99.90;;;;;;5454204;26;20261;-65
2024/04/19 05:50:53;;;;;;;17.80;13.07;;;8.80;99.90;;;;;;5462948;26;20617;-66
2024/04/19 05:53:23;;;;;;;16.53;12.10;;;8.80;99.90;;;;;;5458908;25;20248;-66
2024/04/19 05:55:53;;;;;;;20.97;13.47;;;8.80;99.90;;;;;;5439312;26;20273;-65
2024/04/19 05:58:24;;;;;;;16.57;11.87;;;8.80;99.90;;;;;;5440006;26;20773;-65
2024/04/19 06:00:54;;;;;;;24.10;13.43;;;8.90;99.90;;;;;;5448835;26;20261;-65
2024/04/19 06:03:25;;;;;;;23.70;13.70;;;8.90;99.90;;;;;;5445323;26;20316;-66
2024/04/19 06:05:57;;;;;;;19.90;11.33;;;8.90;99.90;;;;;;5448247;26;20269;-66
2024/04/19 06:08:27;;;;;;;28.70;14.70;;;9.00;99.90;;;;;;5448173;26;20318;-66
2024/04/19 06:10:58;;;;;;;23.00;12.00;;;9.00;99.90;;;;;;5444880;26;20292;-65
2024/04/19 06:13:28;;;;;;;18.10;11.40;;;9.00;99.90;;;;;;5448644;26;20241;-66
2024/04/19 06:15:58;;;;;;;26.40;13.70;;;9.00;99.90;;;;;;5456644;25;20606;-66
2024/04/19 06:18:28;;;;;;;17.07;10.67;;;9.10;99.90;;;;;;5446060;26;20356;-65
2024/04/19 06:21:01;;;;;;;18.43;10.43;;;9.10;99.90;;;;;;5450263;26;20295;-65
2024/04/19 06:23:31;;;;;;;16.87;10.33;;;9.10;99.90;;;;;;5450600;26;20288;-65
2024/04/19 06:26:05;;;;;;;17.30;10.30;;;9.20;99.90;;;;;;5461798;26;20298;-65
2024/04/19 06:28:35;;;;;;;21.20;11.83;;;9.20;99.90;;;;;;5457310;26;20796;-65
2024/04/19 06:31:10;;;;;;;20.30;9.87;;;9.20;99.90;;;;;;5460124;26;20303;-65
2024/04/19 06:33:42;;;;;;;23.13;10.10;;;9.20;99.90;;;;;;5451336;25;20274;-65
2024/04/19 06:36:14;;;;;;;20.77;11.77;;;9.30;99.90;;;;;;5455002;25;20255;-66
2024/04/19 06:38:44;;;;;;;12.93;8.93;;;9.30;99.90;;;;;;5463312;26;20283;-65
2024/04/19 06:41:14;;;;;;;17.53;9.67;;;9.40;99.90;;;;;;5461089;25;20253;-66
2024/04/19 06:43:44;;;;;;;16.60;9.00;;;9.40;99.90;;;;;;5447306;25;20722;-65
2024/04/19 06:46:16;;;;;;;13.10;8.17;;;9.40;99.90;;;;;;5461509;26;20711;-65
2024/04/19 06:48:46;;;;;;;10.93;8.57;;;9.50;99.90;;;;;;5456733;26;20806;-65
2024/04/19 06:51:19;;;;;;;14.50;7.77;;;9.50;99.90;;;;;;5459907;26;20854;-65
2024/04/19 06:53:49;;;;;;;16.03;9.30;;;9.50;99.90;;;;;;5458719;26;20357;-65
2024/04/19 06:56:19;;;;;;;14.53;8.30;;;9.60;99.90;;;;;;5455384;26;20253;-65
2024/04/19 06:58:51;;;;;;;16.13;8.23;;;9.60;99.90;;;;;;5459601;26;20289;-65
2024/04/19 07:01:23;;;;;;;19.33;8.40;;;9.60;99.90;;;;;;5462925;26;20925;-65
2024/04/19 07:03:54;;;;;;;20.63;8.47;;;9.70;99.90;;;;;;5450144;25;20681;-65
2024/04/19 07:06:27;;;;;;;11.20;7.53;;;9.60;99.90;;;;;;5460218;26;20286;-65
2024/04/19 07:09:11;;;;;;;17.57;7.70;;;9.70;99.90;;;;;;5464094;25;20268;-66
2024/04/19 07:11:42;;;;;;;13.37;6.87;;;9.70;99.90;;;;;;5467297;25;20256;-65
2024/04/19 07:14:12;;;;;;;11.60;7.23;;;9.70;99.90;;;;;;5461682;26;20283;-65
2024/04/19 07:16:41;;;;;;;16.97;8.07;;;9.80;99.90;;;;;;5462494;26;20607;-66
2024/04/19 07:19:12;;;;;;;17.40;7.50;;;9.80;99.90;;;;;;5464160;26;20236;-66
2024/04/19 07:21:44;;;;;;;14.63;6.93;;;9.80;99.90;;;;;;5454703;25;20283;-66
2024/04/19 07:24:15;;;;;;;13.40;6.63;;;9.90;99.90;;;;;;5451037;26;20303;-66
2024/04/19 07:26:45;;;;;;;17.47;6.87;;;9.90;99.90;;;;;;5448420;25;20261;-66
2024/04/19 07:29:15;;;;;;;17.73;6.93;;;9.90;99.90;;;;;;5446714;26;20253;-66
2024/04/19 07:31:46;;;;;;;16.40;6.30;;;9.90;99.90;;;;;;5444738;25;20249;-66
2024/04/19 07:34:16;;;;;;;8.87;6.27;;;9.90;99.90;;;;;;5464892;26;20300;-66
2024/04/19 07:36:49;;;;;;;14.67;6.57;;;10.00;99.90;;;;;;5455633;26;20257;-66
2024/04/19 07:39:19;;;;;;;8.67;5.93;;;10.00;99.90;;;;;;5453098;26;20256;-66
2024/04/19 07:41:49;;;;;;;9.00;6.03;;;10.10;99.90;;;;;;5456684;25;20256;-66
2024/04/19 07:44:19;;;;;;;12.10;6.10;;;10.10;99.90;;;;;;5467401;25;20261;-66
2024/04/19 07:46:50;;;;;;;10.07;5.30;;;10.20;99.90;;;;;;5455969;26;20234;-65
2024/04/19 07:49:20;;;;;;;8.63;5.53;;;10.20;99.90;;;;;;5459804;26;20233;-66
2024/04/19 07:51:53;;;;;;;14.27;5.40;;;10.20;99.90;;;;;;5465279;25;20260;-67
2024/04/19 07:54:23;;;;;;;12.03;5.10;;;10.20;99.90;;;;;;5464766;26;20343;-66
2024/04/19 07:56:53;;;;;;;10.70;5.10;;;10.30;99.90;;;;;;5452830;25;20264;-66
2024/04/19 07:59:23;;;;;;;11.37;4.90;;;10.30;99.90;;;;;;5454277;26;20277;-66
2024/04/19 08:01:54;;;;;;;8.27;4.90;;;10.30;99.90;;;;;;5456430;26;20908;-66
2024/04/19 08:04:24;;;;;;;8.37;4.70;;;10.40;99.90;;;;;;5457052;26;20820;-66
2024/04/19 08:06:57;;;;;;;7.00;5.17;;;10.40;99.90;;;;;;5458996;26;20269;-66
2024/04/19 08:09:29;;;;;;;12.00;5.00;;;10.50;99.90;;;;;;5458928;25;20359;-66
2024/04/19 08:12:00;;;;;;;9.53;4.50;;;10.50;99.90;;;;;;5449169;26;20350;-65
2024/04/19 08:14:30;;;;;;;12.40;4.77;;;10.50;99.90;;;;;;5454317;26;20265;-66
2024/04/19 08:17:00;;;;;;;9.13;4.87;;;10.60;99.90;;;;;;5454493;26;20233;-65
2024/04/19 08:19:30;;;;;;;11.53;4.57;;;10.60;99.90;;;;;;5452069;26;20253;-66
2024/04/19 08:22:03;;;;;;;8.57;4.67;;;10.60;99.90;;;;;;5453206;25;20778;-66
2024/04/19 08:24:33;;;;;;;8.97;3.87;;;10.70;99.90;;;;;;5455240;26;21879;-66
2024/04/19 08:27:04;;;;;;;4.13;3.70;;;10.60;99.90;;;;;;5461568;25;20255;-66
2024/04/19 08:29:34;;;;;;;7.33;3.93;;;10.60;99.90;;;;;;5454418;26;20300;-66
2024/04/19 08:32:09;;;;;;;8.10;4.10;;;10.70;99.90;;;;;;5449746;26;20268;-65
2024/04/19 08:34:39;;;;;;;8.53;4.13;;;10.60;99.90;;;;;;5461149;26;20275;-66
2024/04/19 08:37:12;;;;;;;6.40;3.63;;;10.60;99.90;;;;;;5463161;26;20306;-66
2024/04/19 08:39:42;;;;;;;7.87;3.70;;;10.60;99.90;;;;;;5456159;26;20277;-66
2024/04/19 08:42:17;;;;;;;10.60;4.20;;;10.60;99.90;;;;;;5456316;26;20305;-66
2024/04/19 08:44:50;;;;;;;7.80;3.77;;;10.60;99.90;;;;;;5450065;26;20257;-66
2024/04/19 08:47:21;;;;;;;9.07;3.67;;;10.60;99.90;;;;;;5463420;26;20260;-65
2024/04/19 08:49:52;;;;;;;8.13;3.80;;;10.60;99.90;;;;;;5463575;25;20342;-66
2024/04/19 08:52:26;;;;;;;4.87;3.43;;;10.70;99.90;;;;;;5462360;26;20300;-66
2024/04/19 08:55:16;;;;;;;7.50;3.67;;;10.70;99.90;;;;;;5451935;26;20805;-66
2024/04/19 08:57:47;;;;;;;10.30;3.70;;;10.80;99.90;;;;;;5462560;26;20301;-66
2024/04/19 09:00:18;;;;;;;9.43;3.90;;;10.80;99.90;;;;;;5454800;26;20735;-66
2024/04/19 09:02:51;;;;;;;9.37;2.93;;;10.90;99.90;;;;;;5454407;25;20865;-66
2024/04/19 09:05:21;;;;;;;8.57;3.10;;;10.90;99.90;;;;;;5457117;26;20271;-65
2024/04/19 09:07:54;;;;;;;8.43;3.50;;;11.00;99.90;;;;;;5447059;26;20320;-65
2024/04/19 09:10:25;;;;;;;5.93;3.30;;;10.90;99.90;;;;;;5463842;26;20288;-65
2024/04/19 09:12:55;;;;;;;8.27;3.40;;;10.90;99.90;;;;;;5459001;25;20263;-66
2024/04/19 09:15:28;;;;;;;5.37;3.40;;;10.90;99.90;;;;;;5458748;26;20303;-65
2024/04/19 09:17:59;;;;;;;5.43;3.53;;;10.90;99.90;;;;;;5449993;26;20262;-65
2024/04/19 09:20:29;;;;;;;7.23;3.60;;;10.90;99.90;;;;;;5450298;26;20265;-66
2024/04/19 09:23:02;;;;;;;11.23;4.40;;;11.00;99.90;;;;;;5452506;25;20919;-65
2024/04/19 09:25:32;;;;;;;9.60;3.70;;;10.90;99.90;;;;;;5453005;26;20316;-66
2024/04/19 09:28:03;;;;;;;5.63;3.40;;;10.90;99.90;;;;;;5461239;26;20329;-65
2024/04/19 09:30:34;;;;;;;6.80;3.87;;;11.00;99.90;;;;;;5451881;26;20249;-65
2024/04/19 09:33:04;;;;;;;8.17;3.40;;;11.10;99.90;;;;;;5464531;26;20261;-66
2024/04/19 09:35:35;;;;;;;10.57;3.07;;;11.10;99.90;;;;;;5464009;26;20293;-66
2024/04/19 09:38:11;;;;;;;7.27;3.33;;;11.20;99.90;;;;;;5441729;26;20245;-66
2024/04/19 09:40:43;;;;;;;10.50;3.33;;;11.20;99.90;;;;;;5447324;26;20245;-65
2024/04/19 09:43:20;;;;;;;10.20;3.50;;;11.20;99.90;;;;;;5452103;26;20738;-65
2024/04/19 09:45:56;;;;;;;8.47;3.13;;;11.30;99.90;;;;;;5456032;26;20263;-65
2024/04/19 09:48:32;;;;;;;8.07;3.00;;;11.30;99.90;;;;;;5460625;25;20264;-65
2024/04/19 09:51:06;;;;;;;9.93;3.23;;;11.30;99.90;;;;;;5458351;26;20259;-66
2024/04/19 09:53:45;;;;;;;6.47;3.00;;;11.50;99.90;;;;;;5456274;26;20247;-65
2024/04/19 09:56:26;;;;;;;9.23;2.97;;;11.60;99.90;;;;;;5449712;26;20636;-65
2024/04/19 09:58:58;;;;;;;7.00;2.90;;;11.60;99.90;;;;;;5444292;25;20229;-65
2024/04/19 10:01:28;;;;;;;4.90;2.90;;;11.60;99.90;;;;;;5456186;26;20268;-65
2024/04/19 10:03:59;;;;;;;10.07;2.90;;;11.60;99.90;;;;;;5463827;26;20261;-65
2024/04/19 10:06:35;;;;;;;12.97;3.77;;;11.50;99.90;;;;;;5461458;26;20715;-65
2024/04/19 10:09:15;;;;;;;7.97;3.10;;;11.60;99.90;;;;;;5459232;26;20264;-65
2024/04/19 10:11:47;;;;;;;6.77;2.80;;;11.80;99.90;;;;;;5450413;26;20260;-65
2024/04/19 10:14:18;;;;;;;6.50;2.80;;;12.10;99.90;;;;;;5454691;25;20369;-66
2024/04/19 10:16:49;;;;;;;4.33;2.60;;;12.20;99.90;;;;;;5457251;26;20228;-65
2024/04/19 10:19:19;;;;;;;6.10;2.93;;;12.10;99.90;;;;;;5455760;26;20262;-66
2024/04/19 10:21:55;;;;;;;6.40;3.03;;;11.90;99.90;;;;;;5450057;25;20727;-66
2024/04/19 10:24:28;;;;;;;4.73;2.93;;;11.80;99.90;;;;;;5452001;26;20265;-66
2024/04/19 10:26:59;;;;;;;5.17;2.67;;;11.80;99.90;;;;;;5455868;26;20301;-66
2024/04/19 10:29:30;;;;;;;6.60;2.90;;;11.80;99.90;;;;;;5455745;25;20286;-67
2024/04/19 10:32:00;;;;;;;5.37;2.80;;;11.90;99.90;;;;;;5455917;26;20280;-65
2024/04/19 10:34:30;;;;;;;7.37;3.10;;;12.00;99.90;;;;;;5463143;26;20238;-65
2024/04/19 10:37:00;;;;;;;11.17;3.20;;;12.10;99.90;;;;;;5459901;26;20650;-66
2024/04/19 10:39:34;;;;;;;4.73;2.20;;;12.00;99.90;;;;;;5461293;26;20252;-65
2024/04/19 10:42:04;;;;;;;9.77;2.37;;;11.70;99.90;;;;;;5460429;25;20822;-65
2024/04/19 10:44:34;;;;;;;6.43;2.07;;;11.40;99.90;;;;;;5467291;26;20572;-64
2024/04/19 10:47:04;;;;;;;3.90;2.03;;;11.20;99.90;;;;;;5446679;26;20305;-64
2024/04/19 10:49:35;;;;;;;4.17;2.33;;;10.90;99.90;;;;;;5464546;26;20285;-65
2024/04/19 10:52:05;;;;;;;8.37;2.30;;;10.80;99.90;;;;;;5466848;26;20263;-65
2024/04/19 10:54:38;;;;;;;2.40;2.20;;;10.80;99.90;;;;;;5452171;26;20269;-65
2024/04/19 10:57:08;;;;;;;6.80;2.10;;;10.80;99.90;;;;;;5462920;26;20275;-65
2024/04/19 10:59:38;;;;;;;4.37;2.23;;;10.70;99.90;;;;;;5459586;25;20268;-65
2024/04/19 11:02:09;;;;;;;6.07;2.20;;;10.70;99.90;;;;;;5446209;26;20312;-65
2024/04/19 11:04:39;;;;;;;2.33;1.83;;;10.70;99.90;;;;;;5461286;26;20245;-65
2024/04/19 11:07:10;;;;;;;3.73;1.77;;;10.60;99.90;;;;;;5459452;26;20236;-64
2024/04/19 11:09:43;;;;;;;7.93;2.13;;;10.50;99.90;;;;;;5456468;26;20287;-65
2024/04/19 11:12:13;;;;;;;4.33;2.10;;;10.40;99.90;;;;;;5456214;26;20248;-66
2024/04/19 11:14:43;;;;;;;4.10;2.10;;;10.20;99.90;;;;;;5458329;26;20257;-66
2024/04/19 11:17:13;;;;;;;2.97;2.23;;;10.10;99.90;;;;;;5455205;26;20292;-66
2024/04/19 11:19:43;;;;;;;5.93;2.10;;;10.00;99.90;;;;;;5454953;26;20271;-66
2024/04/19 11:22:14;;;;;;;6.13;2.30;;;10.10;99.90;;;;;;5456516;26;20275;-66
2024/04/19 11:24:47;;;;;;;7.63;3.40;;;10.20;99.90;;;;;;5461587;26;20303;-66
2024/04/19 11:27:18;;;;;;;8.13;2.97;;;10.30;99.90;;;;;;5464504;26;20272;-66
2024/04/19 11:29:48;;;;;;;8.03;2.57;;;10.30;99.90;;;;;;5461077;25;20576;-66
2024/04/19 11:32:18;;;;;;;4.47;3.00;;;10.50;99.90;;;;;;5462328;26;20296;-66
2024/04/19 11:34:49;;;;;;;5.30;2.47;;;10.40;99.90;;;;;;5459094;26;20645;-66
2024/04/19 11:37:19;;;;;;;5.93;3.00;;;10.30;99.90;;;;;;5455790;26;20236;-66
2024/04/19 11:39:52;;;;;;;5.53;2.47;;;10.40;99.90;;;;;;5457197;26;20261;-66
2024/04/19 11:42:23;;;;;;;7.10;3.03;;;10.70;99.90;;;;;;5459755;26;20286;-66
2024/04/19 11:44:53;;;;;;;5.90;2.63;;;10.80;99.90;;;;;;5456658;25;20257;-66
2024/04/19 11:47:24;;;;;;;11.93;3.03;;;10.70;99.90;;;;;;5455348;26;20261;-66
2024/04/19 11:49:54;;;;;;;5.70;2.67;;;10.60;99.90;;;;;;5456012;26;20670;-66
2024/04/19 11:52:24;;;;;;;3.90;2.00;;;10.40;99.90;;;;;;5454903;26;20268;-66
2024/04/19 11:54:57;;;;;;;7.10;3.20;;;10.30;99.90;;;;;;5452710;26;20257;-66
2024/04/19 11:57:27;;;;;;;5.80;3.07;;;10.50;99.90;;;;;;5461822;25;20320;-67
2024/04/19 11:59:57;;;;;;;4.23;2.20;;;10.80;99.90;;;;;;5454974;26;20300;-67
2024/04/19 12:02:27;;;;;;;8.53;2.90;;;11.00;99.90;;;;;;5457863;25;20294;-66
2024/04/19 12:04:58;;;;;;;5.90;1.67;;;11.20;99.90;;;;;;5454243;26;20237;-66
2024/04/19 12:07:28;;;;;;;3.40;1.80;;;11.30;99.90;;;;;;5455586;26;20337;-67
2024/04/19 12:10:01;;;;;;;3.53;1.83;;;11.30;99.90;;;;;;5444455;26;20249;-67
2024/04/19 12:12:32;;;;;;;3.43;2.17;;;11.40;99.90;;;;;;5449722;26;20264;-67
2024/04/19 12:15:21;;;;;;;9.77;2.23;;;11.60;99.90;;;;;;5457828;26;20257;-67
2024/04/19 12:18:12;;;;;;;4.97;2.00;;;11.80;99.90;;;;;;5453735;26;20257;-67
2024/04/19 12:20:42;;;;;;;8.07;2.10;;;11.70;99.90;;;;;;5452998;26;20316;-67
2024/04/19 12:23:21;;;;;;;10.03;1.97;;;11.60;99.90;;;;;;5453665;26;21090;-67
2024/04/19 12:25:55;;;;;;;7.50;2.40;;;11.40;99.90;;;;;;5456922;25;20990;-66
2024/04/19 12:28:28;;;;;;;5.03;2.20;;;11.20;99.90;;;;;;5456790;26;20820;-67
2024/04/19 12:30:58;;;;;;;9.70;2.27;;;11.10;99.90;;;;;;5458685;26;20256;-67
2024/04/19 12:33:29;;;;;;;7.90;2.57;;;11.10;99.90;;;;;;5461397;26;20248;-67
2024/04/19 12:36:00;;;;;;;7.60;2.50;;;11.20;99.90;;;;;;5448470;26;20256;-67
2024/04/19 12:38:30;;;;;;;7.70;2.50;;;11.30;99.90;;;;;;5456018;26;20257;-66
2024/04/19 12:41:03;;;;;;;7.07;2.50;;;11.60;99.90;;;;;;5464657;25;20287;-66
2024/04/19 12:43:33;;;;;;;10.93;2.40;;;11.70;99.90;;;;;;5457636;26;20225;-66
2024/04/19 12:46:03;;;;;;;10.30;3.00;;;11.90;99.90;;;;;;5453039;26;20266;-66
2024/04/19 12:48:33;;;;;;;8.70;2.57;;;12.10;99.90;;;;;;5466163;25;20256;-66
2024/04/19 12:51:04;;;;;;;8.93;2.30;;;12.30;99.90;;;;;;5456410;26;20253;-66
2024/04/19 12:53:34;;;;;;;7.63;2.57;;;12.60;99.90;;;;;;5464102;25;20635;-66
2024/04/19 12:56:08;;;;;;;10.57;2.50;;;12.90;99.90;;;;;;5450650;25;20463;-66
2024/04/19 12:58:38;;;;;;;9.70;2.67;;;12.80;99.90;;;;;;5444364;26;20266;-66
2024/04/19 13:01:11;;;;;;;12.60;2.93;;;12.80;99.90;;;;;;5456502;26;20245;-67
2024/04/19 13:03:42;;;;;;;10.40;2.33;;;12.60;99.90;;;;;;5460421;25;20308;-67
2024/04/19 13:06:13;;;;;;;10.33;2.37;;;12.50;99.90;;;;;;5456309;26;20260;-66
2024/04/19 13:08:43;;;;;;;7.77;2.57;;;12.60;99.90;;;;;;5455354;25;20297;-66
2024/04/19 13:11:16;;;;;;;4.97;2.13;;;12.60;99.90;;;;;;5455037;25;20310;-66
2024/04/19 13:13:52;;;;;;;7.90;2.13;;;12.70;98.00;;;;;;5456695;26;20272;-66